Frost, Minnesota
Current Conditions -  °F | °C
As of 10:55 AM on Saturday 25 Oct 2014 (Local Time) from KFRM Reporting Station
Clear Clear  
Wind Chill: 61°   Ceiling: Unl
Heat Index: 61°   Visibility: 10mi
Dew Point:   Wind: 13mph
Humidity: 10%   Direction: 340°NNW
Pressure: 30.12"   Gusts: NA
Location:  43.59°N, 93.93°W
Report Text: KFRM 251555Z AUTO 34011KT 10SM CLR 16/M16 A3012 RMK AO1
Loading
Personal Weather Stations






























Interactive Weather Map
Tropical Storm Tracking
New forecast layout! Learn more

10-Day Weather Forecast

Advertisements
Track Severe Weather on mobile